Terminal Aerodrome Forecast
Issued by NWS

Home | Current Version | Previous Version | Text Only | Print | Product List | Glossary Off
Versions: 1 2 3 4 5 6 7 8 9 10 11 12 13 14 15 16 17 18 19 20 21 22

126
FTUS43 KIWX 191136
TAFSBN
TAF
KSBN 191136Z 1912/2012 18008KT 2SM -RA BR BKN007 OVC010
      WS020/23050KT
     FM191300 17006KT 3/4SM RA BR VCTS OVC003CB WS020/24050KT
      TEMPO 1913/1917 1/2SM RA FG VV001
     FM191800 20015G24KT 1SM -RA BR VCTS OVC003CB WS020/22055KT=

USA.gov is the U.S. government's official web portal to all federal, state and local government web resources and services.